createdAt,value
2022-10-19T00:01:59.277Z,56.88
2022-10-19T00:04:26.881Z,57.13
2022-10-19T00:06:54.324Z,61.08
2022-10-19T00:09:22.814Z,62.47
2022-10-19T00:11:51.057Z,57.20
2022-10-19T00:14:20.638Z,55.55
2022-10-19T00:16:48.942Z,58.53
2022-10-19T00:19:18.796Z,60.03
2022-10-19T00:21:46.524Z,59.45
2022-10-19T00:24:14.588Z,57.25
2022-10-19T00:26:42.542Z,59.15
2022-10-19T00:29:10.865Z,61.80
2022-10-19T00:31:38.625Z,55.55
2022-10-19T00:34:06.344Z,64.22
2022-10-19T00:36:35.445Z,55.72
2022-10-19T00:39:06.278Z,64.20
2022-10-19T00:41:35.275Z,63.60
2022-10-19T00:44:04.738Z,68.55
2022-10-19T00:46:33.665Z,59.65
2022-10-19T00:49:04.927Z,55.53
2022-10-19T00:51:36.701Z,64.13
2022-10-19T00:54:05.680Z,59.05
2022-10-19T00:56:34.073Z,59.33
2022-10-19T00:59:03.288Z,59.53
2022-10-19T01:01:31.659Z,53.67
2022-10-19T01:03:59.529Z,57.10
2022-10-19T01:06:45.468Z,60.38
2022-10-19T01:09:13.251Z,56.53
2022-10-19T01:11:56.010Z,59.22
2022-10-19T01:14:23.534Z,57.85
2022-10-19T01:16:51.297Z,63.88
2022-10-19T01:19:30.056Z,57.55
2022-10-19T01:21:57.589Z,55.47
2022-10-19T01:24:27.943Z,60.85
2022-10-19T01:26:58.483Z,64.85
2022-10-19T01:29:44.430Z,60.33
2022-10-19T01:32:13.456Z,66.57
2022-10-19T01:34:40.777Z,59.70
2022-10-19T01:37:16.958Z,65.20
2022-10-19T01:39:50.561Z,63.05
2022-10-19T01:42:38.358Z,63.92
2022-10-19T01:45:15.649Z,62.67
2022-10-19T01:47:46.451Z,69.03
2022-10-19T01:50:17.758Z,62.80
2022-10-19T01:52:45.331Z,63.67
2022-10-19T01:55:14.951Z,67.53
2022-10-19T01:57:46.068Z,64.72
2022-10-19T02:00:14.870Z,65.22
2022-10-19T02:02:46.525Z,65.07
2022-10-19T02:05:15.898Z,60.38
2022-10-19T02:07:46.691Z,69.72
2022-10-19T02:12:47.458Z,65.00
2022-10-19T02:15:17.610Z,59.00
2022-10-19T02:17:47.661Z,63.63
2022-10-19T02:20:16.195Z,66.05
2022-10-19T02:22:44.011Z,61.13
2022-10-19T02:25:12.054Z,63.08
2022-10-19T02:27:42.075Z,62.75
2022-10-19T02:30:11.185Z,62.83
2022-10-19T02:32:39.357Z,63.65
2022-10-19T02:35:07.379Z,59.72
2022-10-19T02:40:07.687Z,66.82
2022-10-19T02:42:43.563Z,57.30
2022-10-19T02:45:40.550Z,65.45
2022-10-19T02:48:10.644Z,59.53
2022-10-19T02:50:38.281Z,58.50
2022-10-19T02:53:05.864Z,56.97
2022-10-19T02:55:33.620Z,61.83
2022-10-19T02:58:01.029Z,60.15
2022-10-19T03:00:28.502Z,61.13
2022-10-19T03:02:56.130Z,59.33
2022-10-19T03:05:23.536Z,67.05
2022-10-19T03:07:51.092Z,64.30
2022-10-19T03:10:18.575Z,63.13
2022-10-19T03:12:45.908Z,61.83
2022-10-19T03:15:17.442Z,64.65
2022-10-19T03:17:44.851Z,63.67
2022-10-19T03:20:12.395Z,60.17
2022-10-19T03:22:39.924Z,58.60
2022-10-19T03:25:07.602Z,57.17
2022-10-19T03:27:35.416Z,57.85
2022-10-19T03:30:03.411Z,61.85
2022-10-19T03:32:30.982Z,61.88
2022-10-19T03:34:58.632Z,62.35
2022-10-19T03:37:25.783Z,60.35
2022-10-19T03:39:53.318Z,61.08
2022-10-19T03:42:20.825Z,65.35
2022-10-19T03:44:48.571Z,70.78
2022-10-19T03:47:15.948Z,58.97
2022-10-19T03:49:43.783Z,61.88
2022-10-19T03:52:11.564Z,60.60
2022-10-19T03:54:39.307Z,60.15
2022-10-19T03:57:06.860Z,60.22
2022-10-19T03:59:34.621Z,66.72
2022-10-19T04:02:02.524Z,63.03
2022-10-19T04:04:29.922Z,62.03
2022-10-19T04:06:57.741Z,60.83
2022-10-19T04:09:25.426Z,63.90
2022-10-19T04:11:52.974Z,63.60
2022-10-19T04:14:32.024Z,59.70
2022-10-19T04:17:04.271Z,64.30
2022-10-19T04:19:31.860Z,60.90
2022-10-19T04:21:59.566Z,63.67
2022-10-19T04:24:27.451Z,58.50
2022-10-19T04:26:55.616Z,62.25
2022-10-19T04:29:26.465Z,65.40
2022-10-19T04:31:57.447Z,67.80
2022-10-19T04:34:25.239Z,58.92
2022-10-19T04:36:53.646Z,66.65
2022-10-19T04:39:21.284Z,63.88
2022-10-19T04:41:48.859Z,61.53
2022-10-19T04:44:16.562Z,56.47
2022-10-19T04:46:44.216Z,60.55
2022-10-19T04:49:15.131Z,63.08
2022-10-19T04:54:12.779Z,59.63
2022-10-19T04:56:40.449Z,58.80
2022-10-19T04:59:08.106Z,60.20
2022-10-19T05:01:36.298Z,57.83
2022-10-19T05:04:04.160Z,59.97
2022-10-19T05:06:32.445Z,62.70
2022-10-19T05:09:00.393Z,57.58
2022-10-19T05:11:28.330Z,59.10
2022-10-19T05:13:58.592Z,65.13
2022-10-19T05:16:26.159Z,62.05
2022-10-19T05:18:59.255Z,62.58
2022-10-19T05:21:28.239Z,63.67
2022-10-19T05:23:56.444Z,56.10
2022-10-19T05:26:25.030Z,57.38
2022-10-19T05:28:56.995Z,52.28
2022-10-19T05:31:25.501Z,49.33
2022-10-19T05:33:53.093Z,54.17
2022-10-19T05:36:27.831Z,56.72
2022-10-19T05:38:56.280Z,58.22
2022-10-19T05:41:24.881Z,61.80
2022-10-19T05:43:55.598Z,53.65
2022-10-19T05:46:23.860Z,52.53
2022-10-19T05:48:51.355Z,51.78
2022-10-19T05:51:19.948Z,55.00
2022-10-19T05:53:47.598Z,56.10
2022-10-19T05:56:19.182Z,56.15
2022-10-19T05:58:46.997Z,56.83
2022-10-19T06:01:15.277Z,57.83
2022-10-19T06:03:43.088Z,61.97
2022-10-19T06:06:11.108Z,59.80
2022-10-19T06:08:39.064Z,55.28
2022-10-19T06:11:06.526Z,57.85
2022-10-19T06:13:34.246Z,68.40
2022-10-19T06:16:01.962Z,60.42
2022-10-19T06:18:29.935Z,64.00
2022-10-19T06:21:01.155Z,64.45
2022-10-19T06:23:28.713Z,56.42
2022-10-19T06:25:56.200Z,57.00
2022-10-19T06:28:23.718Z,85.47
2022-10-19T06:30:51.083Z,65.28
2022-10-19T06:33:18.873Z,56.75
2022-10-19T06:35:46.432Z,54.88
2022-10-19T06:38:14.295Z,60.00
2022-10-19T06:40:41.752Z,54.90
2022-10-19T06:43:09.399Z,62.67
2022-10-19T06:45:39.944Z,56.95
2022-10-19T06:48:07.952Z,55.70
2022-10-19T06:50:35.682Z,64.07
2022-10-19T06:53:03.236Z,59.90
2022-10-19T06:55:30.603Z,60.15
2022-10-19T06:57:58.765Z,64.18
2022-10-19T07:00:26.458Z,67.63
2022-10-19T07:02:54.157Z,63.45
2022-10-19T07:05:21.358Z,58.25
2022-10-19T07:07:48.759Z,67.68
2022-10-19T07:10:16.074Z,65.03
2022-10-19T07:12:43.426Z,66.53
2022-10-19T07:15:11.040Z,75.78
2022-10-19T07:17:38.648Z,60.72
2022-10-19T07:20:06.496Z,68.57
2022-10-19T07:22:34.407Z,60.38
2022-10-19T07:25:02.449Z,69.13
2022-10-19T07:27:32.884Z,63.40
2022-10-19T07:30:04.388Z,60.35
2022-10-19T07:32:31.931Z,61.67
2022-10-19T07:34:59.692Z,66.10
2022-10-19T07:37:27.408Z,67.75
2022-10-19T07:39:55.096Z,65.35
2022-10-19T07:42:25.698Z,62.60
2022-10-19T07:44:53.617Z,68.30
2022-10-19T07:47:21.366Z,63.05
2022-10-19T07:49:49.214Z,52.95
2022-10-19T07:52:17.172Z,64.63
2022-10-19T07:54:45.049Z,59.42
2022-10-19T07:57:12.954Z,57.17
2022-10-19T07:59:40.913Z,51.25
2022-10-19T08:02:14.773Z,58.38
2022-10-19T08:04:59.870Z,64.18
2022-10-19T08:07:30.252Z,58.10
2022-10-19T08:10:00.605Z,63.08
2022-10-19T08:12:27.982Z,60.45
2022-10-19T08:14:55.597Z,63.35
2022-10-19T08:17:23.355Z,54.53
2022-10-19T08:19:51.190Z,62.58
2022-10-19T08:22:19.259Z,54.50
2022-10-19T08:24:46.979Z,51.03
2022-10-19T08:27:14.948Z,57.20
2022-10-19T08:29:42.463Z,58.28
2022-10-19T08:32:10.547Z,59.95
2022-10-19T08:34:38.059Z,62.83
2022-10-19T08:37:14.689Z,54.75
2022-10-19T08:39:53.394Z,57.50
2022-10-19T08:42:25.372Z,60.92
2022-10-19T08:45:08.143Z,52.42
2022-10-19T08:47:36.058Z,51.10
2022-10-19T08:50:04.099Z,58.55
2022-10-19T08:52:34.804Z,59.03
2022-10-19T08:55:13.913Z,52.45
2022-10-19T08:57:53.480Z,53.80
2022-10-19T09:00:33.181Z,54.15
2022-10-19T09:03:27.180Z,57.63
2022-10-19T09:06:20.035Z,55.65
2022-10-19T09:08:48.622Z,56.28
2022-10-19T09:11:16.657Z,54.85
2022-10-19T09:14:04.342Z,49.47
2022-10-19T09:16:33.401Z,59.95
2022-10-19T09:19:00.744Z,59.45
2022-10-19T09:21:47.026Z,58.65
2022-10-19T09:24:28.849Z,56.85
2022-10-19T09:26:58.829Z,53.53
2022-10-19T09:29:37.797Z,64.20
2022-10-19T09:32:11.527Z,55.15
2022-10-19T09:34:52.921Z,53.00
2022-10-19T09:37:26.037Z,56.65
2022-10-19T09:39:55.808Z,62.53
2022-10-19T09:42:26.225Z,59.38
2022-10-19T09:44:54.879Z,60.58
2022-10-19T09:47:36.063Z,59.92
2022-10-19T09:50:07.064Z,61.88
2022-10-19T09:52:36.386Z,57.28
2022-10-19T09:55:05.657Z,58.67
2022-10-19T09:57:33.236Z,56.95
2022-10-19T10:00:00.797Z,56.05
2022-10-19T10:02:32.998Z,59.35
2022-10-19T10:05:03.693Z,57.93
2022-10-19T10:07:34.476Z,57.38
2022-10-19T10:10:02.267Z,60.38
2022-10-19T10:12:29.688Z,61.45
2022-10-19T10:14:57.354Z,57.10
2022-10-19T10:17:30.544Z,58.90
2022-10-19T10:19:57.930Z,59.35
2022-10-19T10:22:30.607Z,62.72
2022-10-19T10:24:58.061Z,57.70
2022-10-19T10:27:36.133Z,65.93
2022-10-19T10:30:16.137Z,65.38
2022-10-19T10:32:48.188Z,66.35
2022-10-19T10:35:24.881Z,64.57
2022-10-19T10:37:52.676Z,67.85
2022-10-19T10:40:24.768Z,64.00
2022-10-19T10:42:53.817Z,65.60
2022-10-19T10:45:37.043Z,70.07
2022-10-19T10:48:28.063Z,66.43
2022-10-19T10:50:56.460Z,67.75
2022-10-19T10:53:31.698Z,69.18
2022-10-19T10:55:59.138Z,66.28
2022-10-19T10:58:39.008Z,67.05
2022-10-19T11:01:13.435Z,65.15
2022-10-19T11:03:45.436Z,65.63
2022-10-19T11:06:13.407Z,71.82
2022-10-19T11:08:49.879Z,73.82
2022-10-19T11:11:26.202Z,68.13
2022-10-19T11:13:57.326Z,72.45
2022-10-19T11:16:28.856Z,68.30
2022-10-19T11:19:02.356Z,63.45
2022-10-19T11:21:42.174Z,76.65
2022-10-19T11:24:15.418Z,66.25
2022-10-19T11:26:48.505Z,77.00
2022-10-19T11:29:34.359Z,68.90
2022-10-19T11:32:01.775Z,68.68
2022-10-19T11:34:46.428Z,69.60
2022-10-19T11:37:19.572Z,70.45
2022-10-19T11:40:05.258Z,59.85
2022-10-19T11:42:54.896Z,68.70
2022-10-19T11:45:27.911Z,70.38
2022-10-19T11:47:55.433Z,71.50
2022-10-19T11:50:28.339Z,68.00
2022-10-19T11:53:01.776Z,69.50
2022-10-19T11:55:53.618Z,67.70
2022-10-19T11:58:34.620Z,65.35
2022-10-19T12:01:20.955Z,60.22
2022-10-19T12:04:00.554Z,69.07
2022-10-19T12:06:36.671Z,60.55
2022-10-19T12:09:06.902Z,64.07
2022-10-19T12:11:34.406Z,62.53
2022-10-19T12:14:06.562Z,62.55
2022-10-19T12:16:36.111Z,66.68
2022-10-19T12:19:04.860Z,63.55
2022-10-19T12:21:40.056Z,60.42
2022-10-19T12:24:13.964Z,62.70
2022-10-19T12:26:41.958Z,62.90
2022-10-19T12:29:21.672Z,66.25
2022-10-19T12:31:49.502Z,63.53
2022-10-19T12:34:25.869Z,65.53
2022-10-19T12:36:53.394Z,57.67
2022-10-19T12:39:33.516Z,50.90
2022-10-19T12:42:10.846Z,61.08
2022-10-19T12:44:47.451Z,54.33
2022-10-19T12:47:18.185Z,41.80
2022-10-19T12:49:47.647Z,42.92
2022-10-19T12:52:17.443Z,48.97
2022-10-19T12:54:45.342Z,39.95
2022-10-19T12:57:26.138Z,42.92
2022-10-19T13:00:16.648Z,41.78
2022-10-19T13:02:45.317Z,44.38
2022-10-19T13:05:22.349Z,41.28
2022-10-19T13:10:24.587Z,44.45
2022-10-19T13:12:52.318Z,47.92
2022-10-19T13:15:37.743Z,45.90
2022-10-19T13:18:11.691Z,51.58
2022-10-19T13:23:07.941Z,52.40
2022-10-19T13:25:36.322Z,47.65
2022-10-19T13:28:06.603Z,48.25
2022-10-19T13:30:37.488Z,42.88
2022-10-19T13:33:24.586Z,37.08
2022-10-19T13:36:00.921Z,43.08
2022-10-19T13:38:28.574Z,46.13
2022-10-19T13:40:56.286Z,47.72
2022-10-19T13:43:31.880Z,40.38
2022-10-19T13:46:08.307Z,39.92
2022-10-19T13:48:41.460Z,43.08
2022-10-19T13:51:26.367Z,47.75
2022-10-19T13:54:06.564Z,46.03
2022-10-19T13:56:57.254Z,48.85
2022-10-19T13:59:30.728Z,46.42
2022-10-19T14:02:21.512Z,46.72
2022-10-19T14:05:07.003Z,45.75
2022-10-19T14:07:50.015Z,49.80
2022-10-19T14:10:18.906Z,45.17
2022-10-19T14:12:46.773Z,45.30
2022-10-19T14:15:27.485Z,50.40
2022-10-19T14:17:55.250Z,44.00
2022-10-19T14:20:33.164Z,45.72
2022-10-19T14:23:19.899Z,42.85
2022-10-19T14:25:52.088Z,46.22
2022-10-19T14:28:19.635Z,46.53
2022-10-19T14:30:54.302Z,46.40
2022-10-19T14:33:21.839Z,50.00
2022-10-19T14:35:50.035Z,50.20
2022-10-19T14:38:20.536Z,44.28
2022-10-19T14:40:48.178Z,43.00
2022-10-19T14:43:20.921Z,47.38
2022-10-19T14:46:06.822Z,43.38
2022-10-19T14:48:52.091Z,47.58
2022-10-19T14:51:19.601Z,45.45
2022-10-19T14:53:50.057Z,44.08
2022-10-19T14:56:18.179Z,44.92
2022-10-19T14:58:49.789Z,44.17
2022-10-19T15:01:21.053Z,46.35
2022-10-19T15:03:48.983Z,42.35
2022-10-19T15:06:19.587Z,42.25
2022-10-19T15:08:49.670Z,41.03
2022-10-19T15:11:28.062Z,40.90
2022-10-19T15:13:57.320Z,45.92
2022-10-19T15:16:51.561Z,48.10
2022-10-19T15:19:19.242Z,52.13
2022-10-19T15:21:46.876Z,54.70
2022-10-19T15:24:26.130Z,52.55
2022-10-19T15:27:06.640Z,51.10
2022-10-19T15:29:36.128Z,51.22
2022-10-19T15:32:16.304Z,47.60
2022-10-19T15:34:44.596Z,48.42
2022-10-19T15:37:17.037Z,49.85
2022-10-19T15:39:45.706Z,46.57
2022-10-19T15:42:32.139Z,47.30
2022-10-19T15:45:00.270Z,43.65
2022-10-19T15:47:27.620Z,43.60
2022-10-19T15:49:56.491Z,47.40
2022-10-19T15:52:25.541Z,44.33
2022-10-19T15:54:54.949Z,45.28
2022-10-19T15:57:31.111Z,43.38
2022-10-19T16:00:00.339Z,45.85
2022-10-19T16:02:27.755Z,42.17
2022-10-19T16:04:55.502Z,44.28
2022-10-19T16:07:31.021Z,44.15
2022-10-19T16:09:58.799Z,46.70
2022-10-19T16:12:26.752Z,46.63
2022-10-19T16:14:54.649Z,38.10
2022-10-19T16:17:22.719Z,44.70
2022-10-19T16:19:50.383Z,40.97
2022-10-19T16:22:18.181Z,43.25
2022-10-19T16:24:45.727Z,41.55
2022-10-19T16:27:16.516Z,41.65
2022-10-19T16:29:45.068Z,47.25
2022-10-19T16:32:12.502Z,47.97
2022-10-19T16:34:40.029Z,47.45
2022-10-19T16:37:07.666Z,49.28
2022-10-19T16:39:35.309Z,50.17
2022-10-19T16:42:02.983Z,49.30
2022-10-19T16:44:30.564Z,45.90
2022-10-19T16:46:58.542Z,50.28
2022-10-19T16:49:26.363Z,48.60
2022-10-19T16:51:57.219Z,51.90
2022-10-19T16:54:26.918Z,48.42
2022-10-19T16:56:55.817Z,47.50
2022-10-19T16:59:23.351Z,51.38
2022-10-19T17:01:50.813Z,51.20
2022-10-19T17:04:18.683Z,45.78
2022-10-19T17:06:46.523Z,46.00
2022-10-19T17:09:40.216Z,54.40
2022-10-19T17:12:02.620Z,35.05
2022-10-19T17:14:31.436Z,45.45
2022-10-19T17:16:58.895Z,46.25
2022-10-19T17:19:26.870Z,51.53
2022-10-19T17:21:58.110Z,48.38
2022-10-19T17:24:26.002Z,55.05
2022-10-19T17:26:53.326Z,46.50
2022-10-19T17:29:21.738Z,54.75
2022-10-19T17:31:49.893Z,46.28
2022-10-19T17:34:17.635Z,41.53
2022-10-19T17:36:45.793Z,41.78
2022-10-19T17:39:18.392Z,45.55
2022-10-19T17:41:46.191Z,44.25
2022-10-19T17:44:14.152Z,54.85
2022-10-19T17:46:41.609Z,45.50
2022-10-19T17:49:09.947Z,47.83
2022-10-19T17:51:38.033Z,46.90
2022-10-19T17:54:07.611Z,48.35
2022-10-19T17:56:35.610Z,48.38
2022-10-19T17:59:03.685Z,45.67
2022-10-19T18:01:31.158Z,49.35
2022-10-19T18:03:58.818Z,48.58
2022-10-19T18:06:36.035Z,49.42
2022-10-19T18:09:06.046Z,42.78
2022-10-19T18:11:38.576Z,46.03
2022-10-19T18:14:08.003Z,43.50
2022-10-19T18:16:37.225Z,47.15
2022-10-19T18:19:05.995Z,35.95
2022-10-19T18:21:35.740Z,35.72
2022-10-19T18:24:03.638Z,35.75
2022-10-19T18:26:32.485Z,38.15
2022-10-19T18:29:01.174Z,32.75
2022-10-19T18:31:29.731Z,32.03
2022-10-19T18:33:58.568Z,37.00
2022-10-19T18:36:26.251Z,32.15
2022-10-19T18:38:55.016Z,34.47
2022-10-19T18:41:23.476Z,43.05
2022-10-19T18:43:54.293Z,40.17
2022-10-19T18:46:22.877Z,40.15
2022-10-19T18:48:50.502Z,36.28
2022-10-19T18:51:18.939Z,36.42
2022-10-19T18:53:47.374Z,41.15
2022-10-19T18:56:15.815Z,34.58
2022-10-19T18:58:43.500Z,40.92
2022-10-19T19:01:15.533Z,46.20
2022-10-19T19:03:44.742Z,43.00
2022-10-19T19:06:14.057Z,48.97
2022-10-19T19:08:41.833Z,48.33
2022-10-19T19:11:13.663Z,49.45
2022-10-19T19:13:41.851Z,47.60
2022-10-19T19:16:09.542Z,51.13
2022-10-19T19:18:37.240Z,45.50
2022-10-19T19:21:05.557Z,46.47
2022-10-19T19:23:33.420Z,50.13
2022-10-19T19:26:02.902Z,55.03
2022-10-19T19:28:30.781Z,57.67
2022-10-19T19:30:58.383Z,49.22
2022-10-19T19:33:26.564Z,51.05
2022-10-19T19:35:54.480Z,52.78
2022-10-19T19:38:22.654Z,56.53
2022-10-19T19:40:50.225Z,62.25
2022-10-19T19:43:18.182Z,59.17
2022-10-19T19:48:28.973Z,46.90
2022-10-19T19:50:57.172Z,50.40
2022-10-19T19:53:25.276Z,51.72
2022-10-19T19:55:52.910Z,59.92
2022-10-19T19:58:20.462Z,53.75
2022-10-19T20:00:48.152Z,54.75
2022-10-19T20:03:16.669Z,62.60
2022-10-19T20:05:44.326Z,58.47
2022-10-19T20:08:11.939Z,52.42
2022-10-19T20:10:39.754Z,57.90
2022-10-19T20:13:07.152Z,56.55
2022-10-19T20:15:37.053Z,59.00
2022-10-19T20:18:05.000Z,56.45
2022-10-19T20:20:32.453Z,58.28
2022-10-19T20:23:00.052Z,50.90
2022-10-19T20:25:27.564Z,54.03
2022-10-19T20:27:55.571Z,50.97
2022-10-19T20:30:23.376Z,49.80
2022-10-19T20:32:53.411Z,54.17
2022-10-19T20:35:20.987Z,49.00
2022-10-19T20:37:49.626Z,42.75
2022-10-19T20:40:17.348Z,44.28
2022-10-19T20:42:46.092Z,45.25
2022-10-19T20:45:14.035Z,42.50
2022-10-19T20:47:41.597Z,45.92
2022-10-19T20:50:09.352Z,44.03
2022-10-19T20:52:38.636Z,40.00
2022-10-19T20:55:06.910Z,36.67
2022-10-19T20:57:34.442Z,37.63
2022-10-19T21:00:01.933Z,34.08
2022-10-19T21:02:29.594Z,34.10
2022-10-19T21:04:57.362Z,36.00
2022-10-19T21:07:24.998Z,38.15
2022-10-19T21:09:53.889Z,36.05
2022-10-19T21:12:21.475Z,35.90
2022-10-19T21:14:49.245Z,36.45
2022-10-19T21:17:16.791Z,35.17
2022-10-19T21:19:44.199Z,33.47
2022-10-19T21:22:11.637Z,30.35
2022-10-19T21:24:39.788Z,30.00
2022-10-19T21:27:09.241Z,32.17
2022-10-19T21:29:36.933Z,29.25
2022-10-19T21:32:04.531Z,30.55
2022-10-19T21:34:32.106Z,30.85
2022-10-19T21:36:59.640Z,31.58
2022-10-19T21:39:27.168Z,29.55
2022-10-19T21:41:55.016Z,27.38
2022-10-19T21:44:23.436Z,32.20
2022-10-19T21:46:51.000Z,27.90
2022-10-19T21:49:18.747Z,32.05
2022-10-19T21:51:46.262Z,30.50
2022-10-19T21:54:14.741Z,29.40
2022-10-19T21:56:42.590Z,33.95
2022-10-19T21:59:13.012Z,32.22
2022-10-19T22:01:41.492Z,30.77
2022-10-19T22:04:13.358Z,29.75
2022-10-19T22:06:41.316Z,30.63
2022-10-19T22:09:09.718Z,31.33
2022-10-19T22:11:37.345Z,31.92
2022-10-19T22:14:05.059Z,30.35
2022-10-19T22:16:33.361Z,30.35
2022-10-19T22:19:01.083Z,29.13
2022-10-19T22:21:30.621Z,30.15
2022-10-19T22:24:00.586Z,27.60
2022-10-19T22:26:29.408Z,28.73
2022-10-19T22:28:57.829Z,27.83
2022-10-19T22:31:25.962Z,29.90
2022-10-19T22:33:53.326Z,27.58
2022-10-19T22:36:20.740Z,28.63
2022-10-19T22:38:48.347Z,31.23
2022-10-19T22:41:15.735Z,29.60
2022-10-19T22:43:42.888Z,29.67
2022-10-19T22:46:10.547Z,33.28
2022-10-19T22:48:38.131Z,26.52
2022-10-19T22:51:05.689Z,25.13
2022-10-19T22:53:33.256Z,31.00
2022-10-19T22:56:00.743Z,27.73
2022-10-19T22:58:28.257Z,24.13
2022-10-19T23:01:02.807Z,32.58
2022-10-19T23:03:30.348Z,31.58
2022-10-19T23:05:58.009Z,27.08
2022-10-19T23:08:25.869Z,31.52
2022-10-19T23:10:53.279Z,31.48
2022-10-19T23:13:20.647Z,28.63
2022-10-19T23:15:48.128Z,32.13
2022-10-19T23:18:15.485Z,30.08
2022-10-19T23:20:43.281Z,28.20
2022-10-19T23:23:10.653Z,29.13
2022-10-19T23:25:38.055Z,28.65
2022-10-19T23:28:05.560Z,31.77
2022-10-19T23:30:33.249Z,31.77
2022-10-19T23:33:00.618Z,31.75
2022-10-19T23:35:27.917Z,30.45
2022-10-19T23:37:55.954Z,28.85
2022-10-19T23:40:23.566Z,33.00
2022-10-19T23:42:51.206Z,33.15
2022-10-19T23:45:19.537Z,31.00
2022-10-19T23:47:46.918Z,32.38
2022-10-19T23:50:14.377Z,31.63
2022-10-19T23:52:42.153Z,33.55
2022-10-19T23:55:09.819Z,29.60
2022-10-19T23:57:37.791Z,30.83
